createdAt,value
2017-01-11T00:00:45.814Z,656.89
2017-01-11T00:01:45.838Z,658.04
2017-01-11T00:02:45.843Z,656.55
2017-01-11T00:03:45.852Z,658.94
2017-01-11T00:04:45.821Z,657.89
2017-01-11T00:05:45.834Z,656.63
2017-01-11T00:06:45.823Z,656.47
2017-01-11T00:07:45.825Z,656.62
2017-01-11T00:08:45.873Z,657
2017-01-11T00:09:45.819Z,657.2
2017-01-11T00:10:45.814Z,656.87
2017-01-11T00:11:45.844Z,658.41
2017-01-11T00:12:45.848Z,657.15
2017-01-11T00:13:45.843Z,657.61
2017-01-11T00:14:45.915Z,656.51
2017-01-11T00:15:45.858Z,654.78
2017-01-11T00:16:45.849Z,656.23
2017-01-11T00:17:45.809Z,654.84
2017-01-11T00:18:45.833Z,651.38
2017-01-11T00:19:45.833Z,651.7
2017-01-11T00:20:45.849Z,650.27
2017-01-11T00:21:45.850Z,651.22
2017-01-11T00:22:45.855Z,650.68
2017-01-11T00:23:45.832Z,649.59
2017-01-11T00:24:45.826Z,650.74
2017-01-11T00:25:45.875Z,652.53
2017-01-11T00:26:45.869Z,652.2
2017-01-11T00:27:45.835Z,652.54
2017-01-11T00:28:45.837Z,652
2017-01-11T00:29:45.840Z,651.52
2017-01-11T00:30:45.851Z,651.68
2017-01-11T00:31:45.921Z,652.92
2017-01-11T00:32:45.852Z,651.4
2017-01-11T00:33:45.844Z,651.41
2017-01-11T00:34:45.840Z,651.42
2017-01-11T00:35:45.869Z,650.11
2017-01-11T00:36:45.847Z,651.15
2017-01-11T00:37:45.840Z,651.14
2017-01-11T00:38:45.868Z,651.55
2017-01-11T00:39:45.869Z,653.03
2017-01-11T00:40:45.884Z,652.42
2017-01-11T00:41:45.921Z,653.13
2017-01-11T00:42:45.940Z,653.28
2017-01-11T00:43:45.848Z,651.51
2017-01-11T00:44:45.845Z,650.96
2017-01-11T00:45:45.855Z,649.32
2017-01-11T00:46:45.899Z,649.33
2017-01-11T00:47:45.877Z,649.99
2017-01-11T00:48:45.854Z,648.25
2017-01-11T00:49:45.905Z,648.55
2017-01-11T00:50:45.880Z,649.78
2017-01-11T00:51:45.904Z,651.76
2017-01-11T00:52:45.887Z,648.9
2017-01-11T00:53:45.872Z,648.3
2017-01-11T00:54:45.887Z,649.57
2017-01-11T00:55:45.872Z,646.82
2017-01-11T00:56:45.912Z,645.31
2017-01-11T00:57:45.903Z,645.87
2017-01-11T00:58:45.864Z,644.9
2017-01-11T00:59:45.913Z,643.99
2017-01-11T01:00:45.878Z,643.44
2017-01-11T01:01:45.917Z,643.98
2017-01-11T01:02:46.001Z,643.24
2017-01-11T01:03:45.874Z,641.54
2017-01-11T01:04:45.873Z,643.68
2017-01-11T01:05:45.883Z,643.2
2017-01-11T01:06:45.903Z,640.15
2017-01-11T01:07:45.887Z,641.66
2017-01-11T01:08:45.859Z,642.38
2017-01-11T01:09:45.897Z,641.84
2017-01-11T01:10:45.888Z,641.26
2017-01-11T01:11:45.915Z,641.98
2017-01-11T01:12:45.900Z,642.18
2017-01-11T01:13:45.909Z,643.12
2017-01-11T01:14:45.898Z,642.43
2017-01-11T01:15:45.884Z,639.79
2017-01-11T01:16:46.579Z,638.49
2017-01-11T01:17:45.908Z,640.22
2017-01-11T01:18:45.893Z,639.94
2017-01-11T01:19:45.887Z,639.3
2017-01-11T01:20:45.909Z,640.35
2017-01-11T01:21:45.943Z,640.19
2017-01-11T01:22:45.901Z,639.37
2017-01-11T01:23:45.901Z,641.47
2017-01-11T01:24:45.917Z,640.17
2017-01-11T01:25:45.928Z,639.34
2017-01-11T01:26:45.951Z,639.56
2017-01-11T01:27:45.916Z,640.15
2017-01-11T01:28:45.919Z,639.79
2017-01-11T01:29:45.924Z,642.04
2017-01-11T01:30:45.921Z,641.15
2017-01-11T01:31:45.937Z,641.35
2017-01-11T01:32:45.928Z,642.53
2017-01-11T01:33:45.921Z,641.36
2017-01-11T01:34:45.917Z,638.87
2017-01-11T01:35:45.938Z,637.88
2017-01-11T01:36:45.974Z,641.23
2017-01-11T01:37:45.960Z,638.09
2017-01-11T01:38:45.916Z,637.97
2017-01-11T01:39:45.945Z,637.89
2017-01-11T01:40:45.933Z,638.26
2017-01-11T01:41:45.937Z,637.14
2017-01-11T01:42:45.922Z,636.22
2017-01-11T01:43:45.949Z,637.89
2017-01-11T01:44:45.948Z,637.73
2017-01-11T01:45:45.921Z,638.87
2017-01-11T01:46:45.955Z,639.83
2017-01-11T01:47:45.995Z,639.23
2017-01-11T01:48:45.937Z,637.99
2017-01-11T01:49:45.947Z,638.28
2017-01-11T01:50:45.935Z,638.64
2017-01-11T01:51:45.963Z,639.46
2017-01-11T01:52:45.925Z,638.14
2017-01-11T01:53:45.945Z,638.17
2017-01-11T01:54:46.000Z,636.28
2017-01-11T01:55:45.927Z,636.59
2017-01-11T01:56:46.006Z,637.49
2017-01-11T01:57:46.006Z,637.17
2017-01-11T01:58:45.954Z,636.27
2017-01-11T01:59:45.958Z,637.78
2017-01-11T02:00:46.027Z,639.63
2017-01-11T02:01:46.016Z,639.54
2017-01-11T02:02:45.955Z,639.23
2017-01-11T02:03:45.960Z,638.22
2017-01-11T02:04:45.945Z,637.58
2017-01-11T02:05:45.971Z,636.81
2017-01-11T02:06:45.962Z,637.9
2017-01-11T02:07:45.950Z,639.34
2017-01-11T02:08:45.954Z,638.87
2017-01-11T02:09:45.937Z,638.23
2017-01-11T02:10:46.037Z,640.11
2017-01-11T02:11:45.982Z,638.65
2017-01-11T02:12:45.992Z,638.96
2017-01-11T02:13:45.925Z,640.43
2017-01-11T02:14:45.968Z,640.77
2017-01-11T02:15:45.974Z,641.17
2017-01-11T02:16:45.981Z,642.2
2017-01-11T02:17:45.980Z,641.13
2017-01-11T02:18:45.951Z,643.47
2017-01-11T02:19:45.965Z,642.82
2017-01-11T02:20:45.949Z,643.07
2017-01-11T02:21:46.210Z,642.87
2017-01-11T02:22:46.046Z,643.4
2017-01-11T02:23:45.951Z,641.77
2017-01-11T02:24:45.970Z,640.72
2017-01-11T02:25:45.978Z,643.1
2017-01-11T02:26:45.989Z,642.21
2017-01-11T02:27:45.950Z,640.12
2017-01-11T02:28:45.979Z,641.78
2017-01-11T02:29:45.960Z,641.71
2017-01-11T02:30:45.968Z,641.05
2017-01-11T02:31:46.043Z,642.23
2017-01-11T02:32:45.977Z,642.68
2017-01-11T02:33:45.958Z,641.8
2017-01-11T02:34:45.964Z,641.73
2017-01-11T02:35:45.975Z,641.71
2017-01-11T02:36:46.027Z,639.85
2017-01-11T02:37:45.991Z,636.55
2017-01-11T02:38:45.997Z,636.67
2017-01-11T02:39:46.008Z,637.02
2017-01-11T02:40:45.990Z,636.69
2017-01-11T02:41:46.015Z,638.41
2017-01-11T02:42:45.977Z,637.98
2017-01-11T02:43:46.092Z,637.52
2017-01-11T02:44:46.009Z,637.55
2017-01-11T02:45:46.008Z,638.01
2017-01-11T02:46:46.050Z,636.72
2017-01-11T02:47:45.967Z,637.81
2017-01-11T02:48:46.008Z,639.23
2017-01-11T02:49:46.008Z,638.32
2017-01-11T02:50:45.983Z,636.63
2017-01-11T02:51:46.048Z,636.96
2017-01-11T02:52:46.001Z,638.57
2017-01-11T02:53:46.005Z,638
2017-01-11T02:54:45.999Z,636.41
2017-01-11T02:55:46.018Z,637.68
2017-01-11T02:56:46.036Z,636.07
2017-01-11T02:57:46.003Z,634.96
2017-01-11T02:58:46.018Z,635.09
2017-01-11T02:59:46.001Z,634.27
2017-01-11T03:00:46.115Z,634.82
2017-01-11T03:01:46.035Z,635.94
2017-01-11T03:02:46.019Z,634.89
2017-01-11T03:03:46.026Z,634.51
2017-01-11T03:04:46.015Z,635.08
2017-01-11T03:05:46.025Z,633.03
2017-01-11T03:06:46.054Z,633.8
2017-01-11T03:07:46.003Z,634.86
2017-01-11T03:08:46.006Z,634.77
2017-01-11T03:09:46.087Z,633.77
2017-01-11T03:10:46.026Z,633.04
2017-01-11T03:15:15.475Z,634.59
2017-01-11T03:16:15.434Z,634.25
2017-01-11T03:17:15.435Z,633.25
2017-01-11T03:18:15.423Z,635.18
2017-01-11T03:19:15.435Z,633.17
2017-01-11T03:20:15.466Z,633.65
2017-01-11T03:21:15.440Z,634.7
2017-01-11T03:22:15.447Z,633.28
2017-01-11T03:23:15.494Z,634.31
2017-01-11T03:24:15.456Z,635.24
2017-01-11T03:25:15.496Z,635.82
2017-01-11T03:26:15.445Z,636.45
2017-01-11T03:27:15.442Z,636.1
2017-01-11T03:28:15.468Z,635.91
2017-01-11T03:29:15.465Z,636.88
2017-01-11T03:30:15.476Z,634.38
2017-01-11T03:31:15.453Z,635.81
2017-01-11T03:32:15.467Z,635.45
2017-01-11T03:33:15.463Z,635.54
2017-01-11T03:34:25.416Z,637.39
2017-01-11T03:35:15.529Z,638.12
2017-01-11T03:36:16.129Z,637.54
2017-01-11T03:37:15.465Z,637.24
2017-01-11T03:38:15.454Z,638.46
2017-01-11T03:39:15.470Z,640.28
2017-01-11T03:40:15.480Z,640
2017-01-11T03:41:15.473Z,640
2017-01-11T03:42:15.467Z,639.6
2017-01-11T03:43:15.496Z,640.71
2017-01-11T03:44:15.475Z,641.4
2017-01-11T03:45:15.486Z,642.16
2017-01-11T03:46:15.463Z,639.95
2017-01-11T03:47:15.464Z,641.55
2017-01-11T03:48:15.484Z,642.52
2017-01-11T03:49:15.457Z,642.41
2017-01-11T03:50:15.499Z,643.11
2017-01-11T03:51:15.477Z,643.66
2017-01-11T03:52:15.476Z,642.5
2017-01-11T03:53:15.485Z,643.2
2017-01-11T03:54:15.494Z,643.53
2017-01-11T03:55:15.496Z,643.73
2017-01-11T03:56:15.503Z,642.81
2017-01-11T03:57:15.486Z,642.8
2017-01-11T03:58:15.488Z,642.5
2017-01-11T03:59:15.473Z,643.39
2017-01-11T04:00:15.569Z,642.3
2017-01-11T04:01:15.488Z,641.98
2017-01-11T04:02:15.487Z,643.82
2017-01-11T04:03:15.494Z,642.67
2017-01-11T04:04:15.517Z,642.58
2017-01-11T04:05:15.521Z,642.31
2017-01-11T04:06:15.485Z,643.4
2017-01-11T04:07:15.515Z,643.9
2017-01-11T04:08:15.543Z,643.35
2017-01-11T04:09:15.495Z,644.04
2017-01-11T04:10:15.549Z,643.46
2017-01-11T04:11:15.509Z,645.22
2017-01-11T04:12:15.516Z,644.98
2017-01-11T04:13:15.498Z,643.13
2017-01-11T04:14:15.528Z,643.49
2017-01-11T04:15:15.526Z,644.55
2017-01-11T04:16:15.501Z,643.28
2017-01-11T04:17:16.456Z,641.76
2017-01-11T04:18:15.507Z,642.65
2017-01-11T04:19:15.508Z,644.25
2017-01-11T04:20:15.545Z,642.81
2017-01-11T04:21:15.518Z,641.2
2017-01-11T04:22:15.625Z,640.08
2017-01-11T04:23:15.517Z,640.13
2017-01-11T04:24:16.145Z,639.63
2017-01-11T04:25:15.558Z,637.5
2017-01-11T04:26:15.507Z,637.55
2017-01-11T04:27:15.558Z,635.09
2017-01-11T04:28:15.528Z,633.8
2017-01-11T04:29:15.545Z,633
2017-01-11T04:30:15.562Z,630.48
2017-01-11T04:31:15.541Z,630.82
2017-01-11T04:32:15.534Z,630.2
2017-01-11T04:33:15.519Z,629.4
2017-01-11T04:34:15.540Z,628.64
2017-01-11T04:35:15.578Z,629.72
2017-01-11T04:36:15.541Z,628.57
2017-01-11T04:37:15.538Z,629.74
2017-01-11T04:38:15.544Z,630.15
2017-01-11T04:39:15.549Z,631.5
2017-01-11T04:40:15.551Z,632.24
2017-01-11T04:41:15.539Z,632.22
2017-01-11T04:42:15.538Z,631.33
2017-01-11T04:43:15.549Z,632.42
2017-01-11T04:44:15.545Z,632.78
2017-01-11T04:45:18.077Z,634.36
2017-01-11T04:46:15.559Z,634.47
2017-01-11T04:47:15.570Z,634.23
2017-01-11T04:48:15.557Z,636.59
2017-01-11T04:49:15.557Z,636.77
2017-01-11T04:50:15.598Z,636.33
2017-01-11T04:51:15.545Z,638.33
2017-01-11T04:52:15.568Z,639.94
2017-01-11T04:53:15.582Z,639.75
2017-01-11T04:54:15.546Z,641.09
2017-01-11T04:55:15.698Z,641.04
2017-01-11T04:56:15.569Z,641.04
2017-01-11T04:57:15.568Z,642.07
2017-01-11T04:58:15.565Z,642.79
2017-01-11T04:59:15.606Z,643.8
2017-01-11T05:00:15.608Z,644.02
2017-01-11T05:01:15.563Z,644
2017-01-11T05:02:15.566Z,643.96
2017-01-11T05:03:15.569Z,644.13
2017-01-11T05:04:15.568Z,644.84
2017-01-11T05:05:15.599Z,644.79
2017-01-11T05:06:15.652Z,645.08
2017-01-11T05:07:15.588Z,646.2
2017-01-11T05:08:15.657Z,646.49
2017-01-11T05:09:15.574Z,646.43
2017-01-11T05:10:15.601Z,646.8
2017-01-11T05:11:15.587Z,647.26
2017-01-11T05:12:16.196Z,648.43
2017-01-11T05:13:15.575Z,648.65
2017-01-11T05:14:15.579Z,649.99
2017-01-11T05:15:15.606Z,650.01
2017-01-11T05:16:15.583Z,652.25
2017-01-11T05:17:15.593Z,652.31
2017-01-11T05:18:15.692Z,653.52
2017-01-11T05:19:15.599Z,653.84
2017-01-11T05:20:15.609Z,654.35
2017-01-11T05:21:15.607Z,655.05
2017-01-11T05:22:15.595Z,654.3
2017-01-11T05:23:15.597Z,656.08
2017-01-11T05:24:15.615Z,656.01
2017-01-11T05:25:15.628Z,655.63
2017-01-11T05:26:15.598Z,656.32
2017-01-11T05:27:15.595Z,657.03
2017-01-11T05:28:15.606Z,656.8
2017-01-11T05:29:15.607Z,657.5
2017-01-11T05:30:15.628Z,657.09
2017-01-11T05:31:15.601Z,658.7
2017-01-11T05:32:15.625Z,657.74
2017-01-11T05:33:15.606Z,659.11
2017-01-11T05:34:15.596Z,659.16
2017-01-11T05:35:15.626Z,658.98
2017-01-11T05:36:15.656Z,659.68
2017-01-11T05:37:15.705Z,659.3
2017-01-11T05:38:15.618Z,658.12
2017-01-11T05:39:15.626Z,658.74
2017-01-11T05:40:15.644Z,658.37
2017-01-11T05:41:15.638Z,657.41
2017-01-11T05:42:15.605Z,658.1
2017-01-11T05:43:15.605Z,658.43
2017-01-11T05:44:15.605Z,659.3
2017-01-11T05:45:15.645Z,659.76
2017-01-11T05:46:15.640Z,658.86
2017-01-11T05:47:15.619Z,660.78
2017-01-11T05:48:16.227Z,661.1
2017-01-11T05:49:15.624Z,661.19
2017-01-11T05:50:15.658Z,662.22
2017-01-11T05:51:15.705Z,662.85
2017-01-11T05:52:15.640Z,664.24
2017-01-11T05:53:15.652Z,665.07
2017-01-11T05:54:15.668Z,666.48
2017-01-11T05:55:15.754Z,667.47
2017-01-11T05:56:15.643Z,666.17
2017-01-11T05:57:15.643Z,667.72
2017-01-11T05:58:15.631Z,668.23
2017-01-11T05:59:15.643Z,670.58
2017-01-11T06:00:15.661Z,671.78
2017-01-11T06:01:15.642Z,672.21
2017-01-11T06:02:15.703Z,673.07
2017-01-11T06:03:15.662Z,673.48
2017-01-11T06:04:15.693Z,674.23
2017-01-11T06:05:15.671Z,675.11
2017-01-11T06:06:15.644Z,677.2
2017-01-11T06:07:15.666Z,677.8
2017-01-11T06:08:15.653Z,679.03
2017-01-11T06:09:15.662Z,679.53
2017-01-11T06:10:15.691Z,680.33
2017-01-11T06:11:15.662Z,682.11
2017-01-11T06:12:15.641Z,684.21
2017-01-11T06:13:15.668Z,683.92
2017-01-11T06:14:15.662Z,685.81
2017-01-11T06:15:15.680Z,688.02
2017-01-11T06:16:15.673Z,690.08
2017-01-11T06:17:15.660Z,690.7
2017-01-11T06:18:15.662Z,691.09
2017-01-11T06:19:15.676Z,691.26
2017-01-11T06:20:15.691Z,692.43
2017-01-11T06:21:15.661Z,693.78
2017-01-11T06:22:15.640Z,693.69
2017-01-11T06:23:15.726Z,694.83
2017-01-11T06:24:15.663Z,696.23
2017-01-11T06:25:16.426Z,697.3
2017-01-11T06:26:15.669Z,697.9
2017-01-11T06:27:15.675Z,698.52
2017-01-11T06:28:15.676Z,700.2
2017-01-11T06:29:15.675Z,701.87
2017-01-11T06:30:15.756Z,702.17
2017-01-11T06:31:15.698Z,703.09
2017-01-11T06:32:15.657Z,704.34
2017-01-11T06:33:15.680Z,705.78
2017-01-11T06:34:15.699Z,706.53
2017-01-11T06:35:15.786Z,705.56
2017-01-11T06:36:15.678Z,709.11
2017-01-11T06:37:15.689Z,709.8
2017-01-11T06:38:15.678Z,710.9
2017-01-11T06:39:15.675Z,711.57
2017-01-11T06:40:15.709Z,712.57
2017-01-11T06:41:15.686Z,712.98
2017-01-11T06:42:15.712Z,714.93
2017-01-11T06:43:15.700Z,714.83
2017-01-11T06:44:15.684Z,715.63
2017-01-11T06:45:15.722Z,716.33
2017-01-11T06:46:15.688Z,717.9
2017-01-11T06:47:15.738Z,717.92
2017-01-11T06:48:15.848Z,719.05
2017-01-11T06:49:15.710Z,717.69
2017-01-11T06:50:15.717Z,718.58
2017-01-11T06:51:15.687Z,720.15
2017-01-11T06:52:15.694Z,721.48
2017-01-11T06:53:15.688Z,721.34
2017-01-11T06:54:15.725Z,721.36
2017-01-11T06:55:15.706Z,720.55
2017-01-11T06:56:15.717Z,721.83
2017-01-11T06:57:16.416Z,722.98
2017-01-11T06:58:15.708Z,723.07
2017-01-11T06:59:15.697Z,723.8
2017-01-11T07:00:15.738Z,724.75
2017-01-11T07:01:15.715Z,726.38
2017-01-11T07:02:15.708Z,725.54
2017-01-11T07:03:15.778Z,726.36
2017-01-11T07:04:15.737Z,727.06
2017-01-11T07:05:15.735Z,727.43
2017-01-11T07:06:15.720Z,727.96
2017-01-11T07:07:16.336Z,728.86
2017-01-11T07:08:15.716Z,730.49
2017-01-11T07:09:15.727Z,731.84
2017-01-11T07:10:15.795Z,731.9
2017-01-11T07:11:15.751Z,731.82
2017-01-11T07:12:15.745Z,733.5
2017-01-11T07:13:15.996Z,734.44
2017-01-11T07:14:15.714Z,734.32
2017-01-11T07:15:15.761Z,733.91
2017-01-11T07:16:15.798Z,734.85
2017-01-11T07:17:15.715Z,735.65
2017-01-11T07:18:15.735Z,735.79
2017-01-11T07:19:15.704Z,736.34
2017-01-11T07:20:15.761Z,737.05
2017-01-11T07:21:15.723Z,737.18
2017-01-11T07:22:15.734Z,737.61
2017-01-11T07:23:15.745Z,738.05
2017-01-11T07:24:15.731Z,737.45
2017-01-11T07:25:15.764Z,737.5
2017-01-11T07:26:16.346Z,737.71
2017-01-11T07:27:15.758Z,737.97
2017-01-11T07:28:15.812Z,738.37
2017-01-11T07:29:15.755Z,738.14
2017-01-11T07:30:15.811Z,738.58
2017-01-11T07:31:15.727Z,739.33
2017-01-11T07:32:15.743Z,738.75
2017-01-11T07:33:15.752Z,739.47
2017-01-11T07:34:15.738Z,739.51
2017-01-11T07:35:15.784Z,739.41
2017-01-11T07:36:15.753Z,740.11
2017-01-11T07:37:15.749Z,739.94
2017-01-11T07:38:15.760Z,740.06
2017-01-11T07:39:15.805Z,739.99
2017-01-11T07:40:15.783Z,740.99
2017-01-11T07:41:15.762Z,742.07
2017-01-11T07:42:15.783Z,742.73
2017-01-11T07:43:15.761Z,742.93
2017-01-11T07:44:15.765Z,741.95
2017-01-11T07:45:15.785Z,742.75
2017-01-11T07:46:15.890Z,742.96
2017-01-11T07:47:15.762Z,744.11
2017-01-11T07:48:15.753Z,743.23
2017-01-11T07:49:15.778Z,744.32
2017-01-11T07:50:16.343Z,744.47
2017-01-11T07:51:15.811Z,745.45
2017-01-11T07:52:15.771Z,745.66
2017-01-11T07:53:15.817Z,746.38
2017-01-11T07:54:15.790Z,746.97
2017-01-11T07:55:15.841Z,746.48
2017-01-11T07:56:15.796Z,747.7
2017-01-11T07:57:15.826Z,748.04
2017-01-11T07:58:15.931Z,748.26
2017-01-11T07:59:15.786Z,749.41
2017-01-11T08:00:15.861Z,750.29
2017-01-11T08:01:15.796Z,750.93
2017-01-11T08:02:15.842Z,750.8
2017-01-11T08:03:15.909Z,750.94
2017-01-11T08:04:15.807Z,752.94
2017-01-11T08:05:15.860Z,753.92
2017-01-11T08:06:15.929Z,755.32
2017-01-11T08:07:15.802Z,755.44
2017-01-11T08:08:15.891Z,755.53
2017-01-11T08:09:15.785Z,757.03
2017-01-11T08:10:16.070Z,755.71
2017-01-11T08:11:16.031Z,756.21
2017-01-11T08:12:15.799Z,757.21
2017-01-11T08:13:15.856Z,756.86
2017-01-11T08:14:15.829Z,757.1
2017-01-11T08:15:15.850Z,757.54
2017-01-11T08:16:15.913Z,757.74
2017-01-11T08:17:15.789Z,758.29
2017-01-11T08:18:15.861Z,757.99
2017-01-11T08:19:15.809Z,758.59
2017-01-11T08:20:15.849Z,758.64
2017-01-11T08:21:15.800Z,758.14
2017-01-11T08:22:15.839Z,759.39
2017-01-11T08:23:15.827Z,760.3
2017-01-11T08:24:15.830Z,761.31
2017-01-11T08:25:15.899Z,762.79
2017-01-11T08:26:15.932Z,763.49
2017-01-11T08:27:15.806Z,764.61
2017-01-11T08:28:15.838Z,765.24
2017-01-11T08:29:15.882Z,766.71
2017-01-11T08:30:15.849Z,768.03
2017-01-11T08:31:15.808Z,768.91
2017-01-11T08:32:15.829Z,769.01
2017-01-11T08:33:15.827Z,770.65
2017-01-11T08:34:15.805Z,770.46
2017-01-11T08:35:15.869Z,773.02
2017-01-11T08:36:15.831Z,771.47
2017-01-11T08:37:15.866Z,770.23
2017-01-11T08:38:15.837Z,770.87
2017-01-11T08:39:15.830Z,770.16
2017-01-11T08:40:15.837Z,768.79
2017-01-11T08:41:15.867Z,769.61
2017-01-11T08:42:15.826Z,769.42
2017-01-11T08:43:15.833Z,768.7
2017-01-11T08:44:15.868Z,767.96
2017-01-11T08:45:15.869Z,766.99
2017-01-11T08:46:15.816Z,767.37
2017-01-11T08:47:15.838Z,767.25
2017-01-11T08:48:15.847Z,767.05
2017-01-11T08:49:15.848Z,765.48
2017-01-11T08:50:15.858Z,766.54
2017-01-11T08:51:15.840Z,765.56
2017-01-11T08:52:15.900Z,766.37
2017-01-11T08:53:15.878Z,767.13
2017-01-11T08:54:15.844Z,769.27
2017-01-11T08:55:15.886Z,771.14
2017-01-11T08:56:15.852Z,769.37
2017-01-11T08:57:15.956Z,768.67
2017-01-11T08:58:15.866Z,769.13
2017-01-11T08:59:15.884Z,769.74
2017-01-11T09:00:15.962Z,768.84
2017-01-11T09:01:15.847Z,768.52
2017-01-11T09:02:15.975Z,770.84
2017-01-11T09:03:16.030Z,770.9
2017-01-11T09:04:15.977Z,769.05
2017-01-11T09:05:16.098Z,769.46
2017-01-11T09:06:16.184Z,768.94
2017-01-11T09:07:16.026Z,768.9
2017-01-11T09:08:16.187Z,769.68
2017-01-11T09:09:15.987Z,770.38
2017-01-11T09:10:16.280Z,771.48
2017-01-11T09:11:16.072Z,771.02
2017-01-11T09:12:16.261Z,771.71
2017-01-11T09:13:16.364Z,774.57
2017-01-11T09:14:16.187Z,772.85
2017-01-11T09:15:16.220Z,773.04
2017-01-11T09:16:16.075Z,774.4
2017-01-11T09:17:16.104Z,775.83
2017-01-11T09:18:16.143Z,775.77
2017-01-11T09:19:16.158Z,773.33
2017-01-11T09:20:16.098Z,774.86
2017-01-11T09:21:16.103Z,775.21
2017-01-11T09:22:16.098Z,775.14
2017-01-11T09:23:16.121Z,775.32
2017-01-11T09:24:16.120Z,776.06
2017-01-11T09:25:16.569Z,777.59
2017-01-11T09:26:16.177Z,776.84
2017-01-11T09:27:16.131Z,777.73
2017-01-11T09:28:16.227Z,779.48
2017-01-11T09:29:16.157Z,779.58
2017-01-11T09:30:16.173Z,778.06
2017-01-11T09:31:16.113Z,778.76
2017-01-11T09:32:16.174Z,779.69
2017-01-11T09:33:16.188Z,780.5
2017-01-11T09:34:16.046Z,780.75
2017-01-11T09:35:16.110Z,781.05
2017-01-11T09:36:16.200Z,780.76
2017-01-11T09:37:16.040Z,781.84
2017-01-11T09:38:16.111Z,782.44
2017-01-11T09:39:16.085Z,784.82
2017-01-11T09:40:16.132Z,785.76
2017-01-11T09:41:16.227Z,786.49
2017-01-11T09:42:16.124Z,786.85
2017-01-11T09:43:16.113Z,787.75
2017-01-11T09:44:16.074Z,788.52
2017-01-11T09:45:16.109Z,787.95
2017-01-11T09:46:16.097Z,787.77
2017-01-11T09:47:16.077Z,786.11
2017-01-11T09:48:16.086Z,784.92
2017-01-11T09:49:16.036Z,783.85
2017-01-11T09:50:16.067Z,783.77
2017-01-11T09:51:16.040Z,783.12
2017-01-11T09:52:16.034Z,783.87
2017-01-11T09:53:16.066Z,783.23
2017-01-11T09:54:16.154Z,782.04
2017-01-11T09:55:16.116Z,780.07
2017-01-11T09:56:16.085Z,781.57
2017-01-11T09:57:16.226Z,782.33
2017-01-11T09:58:16.056Z,780.77
2017-01-11T09:59:16.125Z,782.23
2017-01-11T10:00:16.156Z,781.48
2017-01-11T10:01:16.216Z,781.24
2017-01-11T10:02:16.081Z,781.86
2017-01-11T10:03:16.077Z,780.81
2017-01-11T10:04:16.218Z,781.7
2017-01-11T10:05:16.229Z,782.87
2017-01-11T10:06:16.298Z,783.04
2017-01-11T10:07:16.145Z,783
2017-01-11T10:08:16.172Z,783.58
2017-01-11T10:09:16.123Z,783.02
2017-01-11T10:10:16.116Z,781.73
2017-01-11T10:11:16.147Z,778.89
2017-01-11T10:12:16.186Z,778.66
2017-01-11T10:13:16.209Z,780.01
2017-01-11T10:14:16.174Z,781
2017-01-11T10:15:16.098Z,781.6
2017-01-11T10:16:16.204Z,781.69
2017-01-11T10:17:16.148Z,781.57
2017-01-11T10:18:16.143Z,783.04
2017-01-11T10:19:16.129Z,782.08
2017-01-11T10:20:16.228Z,781.45
2017-01-11T10:21:16.108Z,782.4
2017-01-11T10:22:16.212Z,784.4
2017-01-11T10:23:16.113Z,786.36
2017-01-11T10:24:16.114Z,786.29
2017-01-11T10:25:16.332Z,786.24
2017-01-11T10:26:16.187Z,786.17
2017-01-11T10:27:16.120Z,785.18
2017-01-11T10:28:16.206Z,787.15
2017-01-11T10:29:16.112Z,788.41
2017-01-11T10:30:16.167Z,787.67
2017-01-11T10:31:16.172Z,786.76
2017-01-11T10:32:16.155Z,788.11
2017-01-11T10:33:16.098Z,789.78
2017-01-11T10:34:16.169Z,787.92
2017-01-11T10:35:16.160Z,788.41
2017-01-11T10:36:16.093Z,791.05
2017-01-11T10:37:16.136Z,789.02
2017-01-11T10:38:16.142Z,789.41
2017-01-11T10:39:16.157Z,789.57
2017-01-11T10:43:46.344Z,795.11
2017-01-11T10:44:46.282Z,794.11
2017-01-11T10:45:46.229Z,797.77
2017-01-11T10:46:46.333Z,796.32
2017-01-11T10:47:46.310Z,794.32
2017-01-11T10:48:46.321Z,793.95
2017-01-11T10:49:46.394Z,796.97
2017-01-11T10:50:46.388Z,799.71
2017-01-11T10:51:46.332Z,798.54
2017-01-11T10:52:46.372Z,798.15
2017-01-11T10:53:46.420Z,797.38
2017-01-11T10:54:46.354Z,800.8
2017-01-11T10:55:46.338Z,804.1
2017-01-11T10:56:46.361Z,797.14
2017-01-11T10:57:46.327Z,797.7
2017-01-11T10:58:46.378Z,799.09
2017-01-11T10:59:46.383Z,801.71
2017-01-11T11:00:46.364Z,802.35
2017-01-11T11:01:46.257Z,798.62
2017-01-11T11:02:46.339Z,797.53
2017-01-11T11:03:46.329Z,798.92
2017-01-11T11:04:46.356Z,801.21
2017-01-11T11:05:46.365Z,800.92
2017-01-11T11:06:46.352Z,804.33
2017-01-11T11:07:46.375Z,803.44
2017-01-11T11:08:46.522Z,801.4
2017-01-11T11:09:46.390Z,799.94
2017-01-11T11:10:46.265Z,800.06
2017-01-11T11:11:46.317Z,797.74
2017-01-11T11:12:46.370Z,796.31
2017-01-11T11:13:46.340Z,799.2
2017-01-11T11:14:46.343Z,799.27
2017-01-11T11:15:46.313Z,800.11
2017-01-11T11:16:46.438Z,800.54
2017-01-11T11:17:46.310Z,798.55
2017-01-11T11:18:46.416Z,800.16
2017-01-11T11:19:46.334Z,798.64
2017-01-11T11:20:46.307Z,800.43
2017-01-11T11:21:46.375Z,799.84
2017-01-11T11:22:46.336Z,797.99
2017-01-11T11:23:46.424Z,800.14
2017-01-11T11:24:46.297Z,799.94
2017-01-11T11:25:46.390Z,797.2
2017-01-11T11:26:46.318Z,799.05
2017-01-11T11:27:46.446Z,797.6
2017-01-11T11:28:46.385Z,797.62
2017-01-11T11:29:46.363Z,801.1
2017-01-11T11:30:46.399Z,799.98
2017-01-11T11:31:46.346Z,798.53
2017-01-11T11:32:46.342Z,798.74
2017-01-11T11:33:46.377Z,799.07
2017-01-11T11:34:46.377Z,800.63
2017-01-11T11:35:46.358Z,799.49
2017-01-11T11:36:46.367Z,800.1
2017-01-11T11:37:46.378Z,799.94
2017-01-11T11:38:46.505Z,800.97
2017-01-11T11:39:46.364Z,802.82
2017-01-11T11:40:46.365Z,803.76
2017-01-11T11:41:46.392Z,802.63
2017-01-11T11:42:47.470Z,803.9
2017-01-11T11:43:46.473Z,803.1
2017-01-11T11:44:46.438Z,804.48
2017-01-11T11:45:46.323Z,805.28
2017-01-11T11:46:46.366Z,804.83
2017-01-11T11:47:46.406Z,805.49
2017-01-11T11:48:46.474Z,807.35
2017-01-11T11:49:46.312Z,807.5
2017-01-11T11:50:46.460Z,807.89
2017-01-11T11:51:46.626Z,807.87
2017-01-11T11:52:46.412Z,807.83
2017-01-11T11:53:46.364Z,808.28
2017-01-11T11:54:46.399Z,807.64
2017-01-11T11:55:46.445Z,808.23
2017-01-11T11:56:46.333Z,809.78
2017-01-11T11:57:46.428Z,811.39
2017-01-11T11:58:46.970Z,810.93
2017-01-11T11:59:46.345Z,813.36
2017-01-11T12:00:46.334Z,815.18
2017-01-11T12:01:46.419Z,815.48
2017-01-11T12:02:46.431Z,815.25
2017-01-11T12:03:46.382Z,815.68
2017-01-11T12:04:46.425Z,817.43
2017-01-11T12:05:46.467Z,818.3
2017-01-11T12:06:46.496Z,821.56
2017-01-11T12:07:56.384Z,822.28
2017-01-11T12:08:46.454Z,821.73
2017-01-11T12:09:46.508Z,822.33
2017-01-11T12:10:46.328Z,822.33
2017-01-11T12:11:46.391Z,824.12
2017-01-11T12:12:46.412Z,825.93
2017-01-11T12:13:46.389Z,828.13
2017-01-11T12:14:46.373Z,827.85
2017-01-11T12:15:46.442Z,828.42
2017-01-11T12:16:46.402Z,828.1
2017-01-11T12:17:46.530Z,828.24
2017-01-11T12:18:46.573Z,828.83
2017-01-11T12:19:46.495Z,828.58
2017-01-11T12:20:46.412Z,828.48
2017-01-11T12:21:46.414Z,829.51
2017-01-11T12:22:46.360Z,831.02
2017-01-11T12:23:46.482Z,832.37
2017-01-11T12:24:46.446Z,833.02
2017-01-11T12:25:46.432Z,833.54
2017-01-11T12:26:46.491Z,832.76
2017-01-11T12:27:46.434Z,835.4
2017-01-11T12:28:46.487Z,839.19
2017-01-11T12:29:46.456Z,842.09
2017-01-11T12:30:46.541Z,843.87
2017-01-11T12:31:46.404Z,845.45
2017-01-11T12:32:46.451Z,845.5
2017-01-11T12:33:46.506Z,845.25
2017-01-11T12:34:46.432Z,844.36
2017-01-11T12:35:46.392Z,848.59
2017-01-11T12:36:46.390Z,847.98
2017-01-11T12:37:46.452Z,850.35
2017-01-11T12:38:46.412Z,856.96
2017-01-11T12:39:46.507Z,857.21